createdAt,value
2022-11-01T00:01:32.138Z,19.36
2022-11-01T00:03:58.932Z,19.36
2022-11-01T00:06:25.812Z,19.37
2022-11-01T00:08:52.323Z,19.36
2022-11-01T00:11:19.261Z,19.35
2022-11-01T00:13:47.795Z,19.33
2022-11-01T00:16:15.325Z,19.32
2022-11-01T00:18:41.969Z,19.30
2022-11-01T00:21:09.299Z,19.29
2022-11-01T00:23:37.057Z,19.30
2022-11-01T00:26:04.150Z,19.30
2022-11-01T00:28:30.878Z,19.32
2022-11-01T00:30:58.200Z,19.34
2022-11-01T00:33:25.194Z,19.34
2022-11-01T00:36:00.580Z,19.35
2022-11-01T00:38:27.658Z,19.35
2022-11-01T00:40:54.561Z,19.35
2022-11-01T00:43:21.645Z,19.33
2022-11-01T00:45:48.316Z,19.30
2022-11-01T00:48:14.832Z,19.31
2022-11-01T00:50:41.669Z,19.31
2022-11-01T00:53:11.059Z,19.30
2022-11-01T00:55:37.636Z,19.32
2022-11-01T00:58:04.739Z,19.31
2022-11-01T01:00:31.456Z,19.32
2022-11-01T01:02:58.048Z,19.33
2022-11-01T01:05:24.676Z,19.34
2022-11-01T01:07:51.222Z,19.36
2022-11-01T01:10:17.800Z,19.39
2022-11-01T01:12:44.264Z,19.42
2022-11-01T01:15:14.359Z,19.41
2022-11-01T01:17:40.972Z,19.40
2022-11-01T01:20:08.178Z,19.40
2022-11-01T01:22:34.743Z,19.41
2022-11-01T01:25:05.956Z,19.41
2022-11-01T01:27:32.708Z,19.43
2022-11-01T01:29:59.197Z,19.44
2022-11-01T01:32:25.773Z,19.47
2022-11-01T01:34:52.262Z,19.49
2022-11-01T01:37:20.171Z,19.51
2022-11-01T01:39:47.040Z,19.55
2022-11-01T01:42:13.456Z,19.56
2022-11-01T01:44:55.244Z,19.58
2022-11-01T01:47:34.330Z,19.62
2022-11-01T01:50:12.645Z,19.65
2022-11-01T01:53:03.363Z,19.66
2022-11-01T01:55:37.337Z,19.71
2022-11-01T01:58:04.543Z,19.72
2022-11-01T02:00:30.999Z,19.73
2022-11-01T02:02:57.639Z,19.75
2022-11-01T02:05:52.063Z,19.78
2022-11-01T02:08:27.832Z,19.80
2022-11-01T02:11:00.845Z,19.81
2022-11-01T02:13:28.788Z,19.83
2022-11-01T02:16:22.504Z,19.84
2022-11-01T02:19:04.087Z,19.88
2022-11-01T02:21:46.354Z,19.92
2022-11-01T02:24:32.576Z,19.94
2022-11-01T02:27:08.823Z,19.98
2022-11-01T02:29:44.257Z,20.02
2022-11-01T02:32:21.212Z,20.04
2022-11-01T02:35:15.687Z,20.09
2022-11-01T02:37:48.828Z,20.13
2022-11-01T02:40:24.980Z,20.17
2022-11-01T02:42:57.148Z,20.21
2022-11-01T02:45:34.395Z,20.25
2022-11-01T02:48:02.543Z,20.27
2022-11-01T02:50:36.616Z,20.28
2022-11-01T02:53:04.360Z,20.29
2022-11-01T02:55:36.039Z,20.30
2022-11-01T02:58:13.152Z,20.33
2022-11-01T03:00:39.655Z,20.33
2022-11-01T03:03:30.673Z,20.31
2022-11-01T03:06:07.221Z,20.31
2022-11-01T03:08:40.628Z,20.33
2022-11-01T03:11:14.027Z,20.35
2022-11-01T03:13:56.421Z,20.35
2022-11-01T03:16:40.783Z,20.38
2022-11-01T03:19:07.218Z,20.38
2022-11-01T03:21:40.908Z,20.38
2022-11-01T03:24:27.310Z,20.37
2022-11-01T03:27:02.651Z,20.40
2022-11-01T03:29:31.429Z,20.41
2022-11-01T03:32:01.076Z,20.42
2022-11-01T03:34:31.589Z,20.45
2022-11-01T03:37:02.207Z,20.45
2022-11-01T03:39:34.926Z,20.46
2022-11-01T03:42:15.589Z,20.46
2022-11-01T03:44:47.549Z,20.48
2022-11-01T03:47:14.208Z,20.50
2022-11-01T03:49:40.720Z,20.49
2022-11-01T03:52:07.996Z,20.50
2022-11-01T03:54:36.143Z,20.49
2022-11-01T03:57:02.765Z,20.48
2022-11-01T03:59:29.274Z,20.45
2022-11-01T04:01:56.098Z,20.43
2022-11-01T04:04:24.034Z,20.41
2022-11-01T04:06:51.363Z,20.41
2022-11-01T04:09:17.849Z,20.40
2022-11-01T04:11:44.319Z,20.40
2022-11-01T04:14:30.800Z,20.38
2022-11-01T04:17:15.645Z,20.32
2022-11-01T04:20:00.583Z,20.28
2022-11-01T04:22:27.065Z,20.21
2022-11-01T04:24:57.119Z,20.15
2022-11-01T04:27:23.588Z,20.08
2022-11-01T04:29:50.066Z,20.02
2022-11-01T04:32:16.522Z,19.94
2022-11-01T04:34:46.171Z,19.88
2022-11-01T04:37:12.838Z,19.82
2022-11-01T04:39:39.416Z,19.77
2022-11-01T04:42:05.910Z,19.72
2022-11-01T04:44:36.509Z,19.64
2022-11-01T04:47:02.980Z,19.59
2022-11-01T04:49:29.491Z,19.53
2022-11-01T04:51:55.942Z,19.47
2022-11-01T04:54:23.791Z,19.42
2022-11-01T04:56:50.260Z,19.36
2022-11-01T04:59:16.763Z,19.31
2022-11-01T05:01:45.364Z,19.25
2022-11-01T05:04:15.218Z,19.18
2022-11-01T05:06:41.700Z,19.14
2022-11-01T05:09:08.188Z,19.08
2022-11-01T05:11:34.685Z,19.03
2022-11-01T05:14:01.244Z,18.97
2022-11-01T05:16:27.830Z,18.93
2022-11-01T05:18:54.330Z,18.89
2022-11-01T05:21:20.790Z,18.84
2022-11-01T05:23:48.780Z,18.80
2022-11-01T05:26:15.309Z,18.76
2022-11-01T05:28:41.785Z,18.72
2022-11-01T05:31:08.260Z,18.70
2022-11-01T05:33:34.730Z,18.65
2022-11-01T05:36:02.134Z,18.61
2022-11-01T05:38:28.803Z,18.57
2022-11-01T05:40:55.315Z,18.53
2022-11-01T05:43:21.752Z,18.49
2022-11-01T05:45:49.222Z,18.46
2022-11-01T05:48:15.691Z,18.42
2022-11-01T05:50:43.821Z,18.37
2022-11-01T05:53:10.640Z,18.34
2022-11-01T05:55:39.345Z,18.31
2022-11-01T05:58:06.129Z,18.28
2022-11-01T06:00:33.610Z,18.24
2022-11-01T06:03:01.018Z,18.21
2022-11-01T06:05:31.743Z,18.17
2022-11-01T06:08:01.481Z,18.13
2022-11-01T06:10:28.848Z,18.09
2022-11-01T06:12:55.573Z,18.04
2022-11-01T06:15:26.420Z,17.99
2022-11-01T06:17:57.466Z,17.97
2022-11-01T06:20:25.300Z,17.93
2022-11-01T06:22:51.887Z,17.90
2022-11-01T06:25:22.902Z,17.86
2022-11-01T06:27:49.400Z,17.84
2022-11-01T06:30:16.025Z,17.81
2022-11-01T06:32:42.604Z,17.77
2022-11-01T06:35:11.760Z,17.74
2022-11-01T06:37:41.392Z,17.68
2022-11-01T06:40:08.460Z,17.66
2022-11-01T06:42:34.980Z,17.66
2022-11-01T06:45:03.660Z,17.63
2022-11-01T06:47:30.178Z,17.61
2022-11-01T06:49:56.762Z,17.60
2022-11-01T06:52:23.256Z,17.57
2022-11-01T06:54:53.633Z,17.52
2022-11-01T06:57:20.189Z,17.49
2022-11-01T06:59:46.696Z,17.47
2022-11-01T07:02:14.652Z,17.46
2022-11-01T07:04:44.557Z,17.44
2022-11-01T07:07:11.031Z,17.43
2022-11-01T07:09:37.495Z,17.40
2022-11-01T07:12:04.174Z,17.36
2022-11-01T07:14:33.504Z,17.34
2022-11-01T07:16:59.944Z,17.32
2022-11-01T07:19:26.433Z,17.33
2022-11-01T07:21:52.881Z,17.34
2022-11-01T07:24:20.707Z,17.35
2022-11-01T07:26:48.286Z,17.36
2022-11-01T07:29:14.999Z,17.38
2022-11-01T07:31:41.731Z,17.40
2022-11-01T07:34:11.858Z,17.40
2022-11-01T07:36:38.403Z,17.40
2022-11-01T07:39:04.842Z,17.43
2022-11-01T07:41:31.440Z,17.46
2022-11-01T07:43:57.924Z,17.50
2022-11-01T07:46:24.503Z,17.52
2022-11-01T07:48:51.344Z,17.54
2022-11-01T07:51:18.282Z,17.58
2022-11-01T07:53:44.744Z,17.59
2022-11-01T07:56:11.269Z,17.62
2022-11-01T07:58:37.984Z,17.65
2022-11-01T08:01:04.571Z,17.68
2022-11-01T08:03:31.025Z,17.69
2022-11-01T08:05:58.001Z,17.72
2022-11-01T08:08:24.517Z,17.75
2022-11-01T08:10:51.013Z,17.78
2022-11-01T08:13:24.913Z,17.78
2022-11-01T08:15:54.795Z,17.79
2022-11-01T08:18:24.220Z,17.80
2022-11-01T08:20:51.373Z,17.79
2022-11-01T08:23:18.084Z,17.81
2022-11-01T08:25:46.138Z,17.82
2022-11-01T08:28:15.478Z,17.82
2022-11-01T08:30:43.520Z,17.85
2022-11-01T08:33:10.936Z,17.87
2022-11-01T08:35:38.427Z,17.92
2022-11-01T08:38:05.384Z,17.97
2022-11-01T08:40:33.404Z,18.04
2022-11-01T08:43:00.677Z,18.12
2022-11-01T08:45:29.060Z,18.18
2022-11-01T08:48:03.559Z,18.30
2022-11-01T08:50:30.126Z,18.44
2022-11-01T08:52:56.689Z,18.57
2022-11-01T08:55:25.246Z,18.67
2022-11-01T08:57:51.892Z,18.76
2022-11-01T09:00:18.781Z,18.83
2022-11-01T09:02:45.578Z,18.91
2022-11-01T09:05:13.435Z,18.99
2022-11-01T09:07:40.008Z,19.06
2022-11-01T09:10:07.411Z,19.13
2022-11-01T09:12:34.727Z,19.22
2022-11-01T09:15:01.291Z,19.29
2022-11-01T09:17:28.280Z,19.39
2022-11-01T09:19:55.271Z,19.48
2022-11-01T09:22:22.920Z,19.55
2022-11-01T09:24:55.466Z,19.63
2022-11-01T09:27:21.974Z,19.74
2022-11-01T09:29:51.066Z,19.79
2022-11-01T09:32:21.172Z,19.84
2022-11-01T09:34:51.805Z,19.89
2022-11-01T09:37:18.294Z,19.96
2022-11-01T09:39:44.862Z,20.06
2022-11-01T09:42:26.230Z,20.13
2022-11-01T09:44:57.039Z,20.20
2022-11-01T09:47:28.249Z,20.24
2022-11-01T09:50:02.805Z,20.28
2022-11-01T09:52:29.374Z,20.28
2022-11-01T09:54:55.921Z,20.31
2022-11-01T09:57:35.515Z,20.34
2022-11-01T10:00:04.910Z,20.39
2022-11-01T10:02:46.136Z,20.45
2022-11-01T10:05:21.723Z,20.51
2022-11-01T10:08:10.706Z,20.55
2022-11-01T10:10:38.959Z,20.65
2022-11-01T10:13:18.965Z,20.68
2022-11-01T10:16:14.166Z,20.73
2022-11-01T10:18:56.441Z,20.80
2022-11-01T10:21:27.345Z,20.87
2022-11-01T10:23:59.919Z,20.94
2022-11-01T10:26:29.331Z,20.97
2022-11-01T10:29:18.075Z,21.01
2022-11-01T10:31:48.295Z,21.02
2022-11-01T10:34:25.110Z,21.03
2022-11-01T10:36:58.716Z,21.10
2022-11-01T10:39:54.990Z,21.18
2022-11-01T10:42:23.547Z,21.27
2022-11-01T10:44:55.372Z,21.32
2022-11-01T10:47:24.286Z,21.42
2022-11-01T10:50:14.866Z,21.55
2022-11-01T10:52:50.831Z,21.58
2022-11-01T10:55:49.989Z,21.63
2022-11-01T10:58:29.136Z,21.70
2022-11-01T11:00:55.917Z,21.79
2022-11-01T11:03:30.889Z,21.84
2022-11-01T11:06:01.671Z,21.91
2022-11-01T11:08:28.361Z,21.97
2022-11-01T11:11:02.323Z,22.00
2022-11-01T11:13:29.922Z,22.04
2022-11-01T11:16:04.262Z,22.05
2022-11-01T11:18:30.677Z,22.08
2022-11-01T11:21:02.809Z,22.06
2022-11-01T11:23:33.061Z,22.08
2022-11-01T11:26:04.984Z,22.13
2022-11-01T11:28:34.263Z,22.22
2022-11-01T11:31:34.990Z,22.31
2022-11-01T11:34:32.629Z,22.41
2022-11-01T11:37:03.579Z,22.49
2022-11-01T11:39:36.356Z,22.53
2022-11-01T11:42:18.874Z,22.56
2022-11-01T11:44:53.851Z,22.57
2022-11-01T11:47:24.630Z,22.61
2022-11-01T11:49:54.102Z,22.63
2022-11-01T11:52:28.378Z,22.66
2022-11-01T11:54:56.968Z,22.71
2022-11-01T11:57:25.795Z,22.73
2022-11-01T11:59:55.321Z,22.74
2022-11-01T12:02:29.629Z,22.78
2022-11-01T12:05:06.678Z,22.85
2022-11-01T12:07:45.630Z,22.92
2022-11-01T12:10:34.502Z,22.93
2022-11-01T12:13:02.595Z,22.96
2022-11-01T12:15:38.434Z,22.97
2022-11-01T12:18:16.015Z,22.95
2022-11-01T12:20:48.328Z,22.90
2022-11-01T12:23:22.517Z,22.83
2022-11-01T12:25:51.097Z,22.78
2022-11-01T12:28:25.885Z,22.65
2022-11-01T12:30:58.318Z,22.49
2022-11-01T12:33:50.772Z,22.35
2022-11-01T12:36:32.223Z,22.25
2022-11-01T12:39:02.057Z,22.17
2022-11-01T12:41:52.370Z,22.04
2022-11-01T12:44:39.120Z,22.00
2022-11-01T12:47:40.635Z,21.97
2022-11-01T12:50:22.357Z,21.91
2022-11-01T12:52:56.924Z,21.87
2022-11-01T12:55:29.892Z,21.91
2022-11-01T12:57:56.857Z,21.99
2022-11-01T13:00:25.996Z,22.08
2022-11-01T13:03:14.473Z,22.16
2022-11-01T13:06:06.299Z,22.19
2022-11-01T13:09:04.716Z,22.18
2022-11-01T13:11:49.764Z,22.24
2022-11-01T13:14:41.266Z,22.30
2022-11-01T13:17:10.740Z,22.34
2022-11-01T13:19:46.476Z,22.36
2022-11-01T13:22:48.316Z,22.37
2022-11-01T13:25:40.847Z,22.39
2022-11-01T13:28:22.130Z,22.45
2022-11-01T13:31:33.370Z,22.46
2022-11-01T13:34:02.850Z,22.46
2022-11-01T13:36:32.144Z,22.42
2022-11-01T13:39:10.103Z,22.41
2022-11-01T13:42:00.955Z,22.37
2022-11-01T13:44:32.727Z,22.34
2022-11-01T13:47:27.847Z,22.29
2022-11-01T13:50:32.561Z,22.20
2022-11-01T13:53:10.330Z,22.18
2022-11-01T13:55:48.093Z,22.17
2022-11-01T13:58:19.451Z,22.15
2022-11-01T14:00:49.991Z,22.11
2022-11-01T14:03:24.093Z,22.07
2022-11-01T14:06:09.404Z,22.01
2022-11-01T14:08:41.092Z,21.99
2022-11-01T14:11:11.530Z,21.95
2022-11-01T14:13:41.145Z,21.89
2022-11-01T14:16:22.733Z,21.87
2022-11-01T14:19:02.702Z,21.85
2022-11-01T14:21:49.696Z,21.80
2022-11-01T14:24:22.249Z,21.73
2022-11-01T14:26:50.184Z,21.65
2022-11-01T14:29:17.058Z,21.60
2022-11-01T14:31:46.071Z,21.59
2022-11-01T14:34:24.455Z,21.55
2022-11-01T14:36:53.951Z,21.51
2022-11-01T14:39:46.727Z,21.48
2022-11-01T14:42:22.954Z,21.45
2022-11-01T14:44:56.287Z,21.40
2022-11-01T14:47:37.703Z,21.34
2022-11-01T14:50:18.588Z,21.27
2022-11-01T14:52:56.602Z,21.21
2022-11-01T14:55:36.238Z,21.14
2022-11-01T14:58:22.317Z,21.07
2022-11-01T15:00:54.939Z,21.03
2022-11-01T15:03:22.322Z,20.96
2022-11-01T15:05:52.364Z,20.91
2022-11-01T15:08:30.152Z,20.87
2022-11-01T15:11:00.135Z,20.81
2022-11-01T15:13:27.929Z,20.74
2022-11-01T15:16:21.698Z,20.65
2022-11-01T15:18:54.867Z,20.61
2022-11-01T15:21:27.267Z,20.60
2022-11-01T15:23:57.631Z,20.57
2022-11-01T15:26:27.033Z,20.50
2022-11-01T15:28:58.101Z,20.43
2022-11-01T15:31:25.486Z,20.34
2022-11-01T15:34:00.660Z,20.30
2022-11-01T15:36:29.411Z,20.25
2022-11-01T15:39:01.856Z,20.19
2022-11-01T15:41:28.348Z,20.15
2022-11-01T15:43:56.997Z,20.07
2022-11-01T15:46:29.982Z,19.99
2022-11-01T15:49:00.518Z,19.95
2022-11-01T15:51:29.814Z,19.88
2022-11-01T15:54:34.188Z,19.82
2022-11-01T15:57:08.044Z,19.82
2022-11-01T15:59:48.738Z,19.79
2022-11-01T16:02:23.481Z,19.76
2022-11-01T16:04:52.096Z,19.69
2022-11-01T16:07:21.393Z,19.61
2022-11-01T16:09:51.807Z,19.55
2022-11-01T16:12:22.332Z,19.48
2022-11-01T16:15:00.345Z,19.42
2022-11-01T16:17:35.833Z,19.39
2022-11-01T16:20:07.778Z,19.35
2022-11-01T16:22:36.620Z,19.33
2022-11-01T16:25:16.404Z,19.25
2022-11-01T16:28:10.300Z,19.20
2022-11-01T16:30:42.808Z,19.13
2022-11-01T16:33:18.242Z,19.07
2022-11-01T16:35:47.477Z,19.03
2022-11-01T16:38:34.167Z,18.98
2022-11-01T16:41:06.353Z,18.94
2022-11-01T16:43:34.740Z,18.91
2022-11-01T16:46:03.239Z,18.87
2022-11-01T16:48:35.990Z,18.83
2022-11-01T16:51:03.550Z,18.83
2022-11-01T16:53:30.501Z,18.82
2022-11-01T16:56:34.507Z,18.78
2022-11-01T16:58:59.433Z,18.78
2022-11-01T17:01:35.274Z,18.77
2022-11-01T17:04:02.671Z,18.75
2022-11-01T17:06:32.280Z,18.73
2022-11-01T17:09:01.152Z,18.72
2022-11-01T17:11:27.717Z,18.73
2022-11-01T17:13:54.235Z,18.73
2022-11-01T17:16:25.855Z,18.72
2022-11-01T17:18:56.304Z,18.69
2022-11-01T17:21:23.800Z,18.68
2022-11-01T17:23:51.229Z,18.66
2022-11-01T17:26:19.395Z,18.65
2022-11-01T17:28:51.233Z,18.66
2022-11-01T17:31:18.932Z,18.66
2022-11-01T17:33:45.830Z,18.65
2022-11-01T17:36:17.017Z,18.64
2022-11-01T17:38:44.910Z,18.62
2022-11-01T17:41:17.315Z,18.57
2022-11-01T17:43:44.127Z,18.55
2022-11-01T17:46:15.032Z,18.51
2022-11-01T17:48:41.836Z,18.47
2022-11-01T17:51:08.529Z,18.42
2022-11-01T17:53:38.068Z,18.39
2022-11-01T17:56:04.915Z,18.37
2022-11-01T17:58:31.431Z,18.36
2022-11-01T18:00:57.986Z,18.35
2022-11-01T18:03:25.505Z,18.35
2022-11-01T18:06:02.164Z,18.35
2022-11-01T18:08:33.316Z,18.37
2022-11-01T18:11:15.475Z,18.34
2022-11-01T18:13:44.616Z,18.32
2022-11-01T18:16:26.630Z,18.26
2022-11-01T18:19:01.648Z,18.24
2022-11-01T18:21:40.245Z,18.23
2022-11-01T18:24:18.365Z,18.20
2022-11-01T18:26:48.276Z,18.18
2022-11-01T18:29:24.553Z,18.15
2022-11-01T18:32:07.926Z,18.16
2022-11-01T18:34:42.970Z,18.17
2022-11-01T18:37:26.023Z,18.20
2022-11-01T18:40:01.392Z,18.20
2022-11-01T18:42:28.137Z,18.21
2022-11-01T18:44:58.098Z,18.24
2022-11-01T18:47:32.676Z,18.23
2022-11-01T18:50:03.807Z,18.25
2022-11-01T18:52:30.270Z,18.25
2022-11-01T18:54:58.768Z,18.25
2022-11-01T18:57:27.847Z,18.24
2022-11-01T18:59:54.548Z,18.24
2022-11-01T19:02:24.545Z,18.22
2022-11-01T19:04:52.607Z,18.22
2022-11-01T19:07:22.894Z,18.21
2022-11-01T19:09:57.139Z,18.20
2022-11-01T19:12:31.266Z,18.21
2022-11-01T19:15:21.419Z,18.17
2022-11-01T19:18:02.696Z,18.16
2022-11-01T19:20:39.661Z,18.16
2022-11-01T19:23:37.508Z,18.15
2022-11-01T19:26:27.287Z,18.14
2022-11-01T19:28:54.013Z,18.09
2022-11-01T19:31:23.317Z,18.05
2022-11-01T19:33:55.342Z,18.02
2022-11-01T19:36:25.282Z,18.00
2022-11-01T19:38:53.372Z,18.00
2022-11-01T19:41:30.413Z,18.01
2022-11-01T19:44:01.959Z,18.01
2022-11-01T19:46:30.033Z,17.99
2022-11-01T19:48:56.505Z,18.01
2022-11-01T19:51:23.823Z,18.00
2022-11-01T19:53:52.062Z,18.01
2022-11-01T19:56:21.940Z,18.00
2022-11-01T19:58:55.082Z,18.01
2022-11-01T20:01:45.303Z,18.01
2022-11-01T20:04:29.018Z,18.02
2022-11-01T20:07:08.682Z,18.03
2022-11-01T20:09:36.522Z,18.02
2022-11-01T20:12:03.325Z,18.02
2022-11-01T20:14:36.342Z,18.02
2022-11-01T20:17:03.380Z,18.01
2022-11-01T20:19:31.329Z,18.00
2022-11-01T20:21:59.005Z,17.99
2022-11-01T20:24:28.457Z,17.99
2022-11-01T20:26:55.442Z,17.98
2022-11-01T20:29:22.536Z,18.00
2022-11-01T20:31:49.835Z,17.98
2022-11-01T20:34:17.521Z,18.02
2022-11-01T20:36:46.805Z,18.06
2022-11-01T20:39:22.712Z,18.10
2022-11-01T20:41:51.534Z,18.14
2022-11-01T20:44:18.666Z,18.17
2022-11-01T20:46:45.447Z,18.20
2022-11-01T20:49:12.030Z,18.22
2022-11-01T20:51:40.593Z,18.26
2022-11-01T20:54:17.495Z,18.29
2022-11-01T20:56:44.666Z,18.32
2022-11-01T20:59:12.250Z,18.32
2022-11-01T21:01:40.410Z,18.33
2022-11-01T21:04:17.056Z,18.36
2022-11-01T21:06:43.644Z,18.39
2022-11-01T21:09:33.551Z,18.37
2022-11-01T21:12:00.323Z,18.37
2022-11-01T21:14:37.167Z,18.36
2022-11-01T21:17:16.926Z,18.38
2022-11-01T21:19:49.075Z,18.41
2022-11-01T21:22:19.659Z,18.42
2022-11-01T21:24:51.298Z,18.41
2022-11-01T21:30:15.010Z,18.43
2022-11-01T21:32:45.003Z,18.42
2022-11-01T21:35:38.030Z,18.41
2022-11-01T21:38:32.143Z,18.45
2022-11-01T21:40:59.220Z,18.47
2022-11-01T21:43:32.635Z,18.48
2022-11-01T21:45:59.690Z,18.49
2022-11-01T21:48:29.846Z,18.46
2022-11-01T21:50:56.902Z,18.47
2022-11-01T21:53:23.452Z,18.48
2022-11-01T21:55:50.181Z,18.50
2022-11-01T21:58:16.715Z,18.51
2022-11-01T22:00:43.247Z,18.54
2022-11-01T22:03:09.810Z,18.54
2022-11-01T22:05:36.508Z,18.56
2022-11-01T22:08:03.076Z,18.57
2022-11-01T22:10:29.616Z,18.58
2022-11-01T22:12:56.261Z,18.61
2022-11-01T22:15:24.501Z,18.63
2022-11-01T22:17:51.034Z,18.63
2022-11-01T22:20:17.603Z,18.64
2022-11-01T22:22:44.055Z,18.65
2022-11-01T22:25:11.140Z,18.64
2022-11-01T22:27:37.610Z,18.65
2022-11-01T22:30:05.436Z,18.64
2022-11-01T22:32:31.912Z,18.66
2022-11-01T22:34:59.663Z,18.67
2022-11-01T22:37:26.970Z,18.67
2022-11-01T22:39:53.913Z,18.69
2022-11-01T22:42:20.505Z,18.69
2022-11-01T22:44:50.436Z,18.68
2022-11-01T22:47:28.312Z,18.68
2022-11-01T22:49:57.105Z,18.67
2022-11-01T22:52:50.413Z,18.65
2022-11-01T22:55:24.804Z,18.67
2022-11-01T22:58:13.720Z,18.66
2022-11-01T23:00:40.282Z,18.67
2022-11-01T23:03:23.412Z,18.64
2022-11-01T23:05:52.740Z,18.66
2022-11-01T23:08:37.083Z,18.65
2022-11-01T23:11:04.551Z,18.65
2022-11-01T23:13:55.871Z,18.65
2022-11-01T23:16:39.917Z,18.63
2022-11-01T23:19:11.318Z,18.59
2022-11-01T23:21:37.943Z,18.56
2022-11-01T23:24:25.539Z,18.52
2022-11-01T23:26:53.204Z,18.49
2022-11-01T23:29:19.781Z,18.47
2022-11-01T23:31:46.354Z,18.42
2022-11-01T23:34:15.701Z,18.39
2022-11-01T23:36:42.754Z,18.36
2022-11-01T23:39:14.551Z,18.33
2022-11-01T23:41:46.249Z,18.33
2022-11-01T23:44:39.588Z,18.33
2022-11-01T23:47:19.724Z,18.36
2022-11-01T23:49:48.976Z,18.36
2022-11-01T23:52:41.936Z,18.32
2022-11-01T23:55:26.492Z,18.32
2022-11-01T23:57:58.562Z,18.32
